Impacts TAF Board INFO
FOR SITUATIONAL AWARENESS. NOT TO BE USED FOR FLIGHT PLANNING PURPOSES.
IDs:

KMEM - Memphis Intl, TN, US

Issued at 2332 UTC 22 May 2018
Updated at 0255 UTC 23 May 2018
Potential Impact None Slight Moderate High
Time<<24/03Z 24/04Z 24/05Z 24/06Z 24/07Z 24/08Z 24/09Z 24/10Z 24/11Z 24/12Z 24/13Z 24/14Z 24/15Z
Type PRVL PRVL PRVL
VIS >6 >6 >6
CIG 40 40 40
Cover BKN BKN BKN
FltCat VFR VFR VFR
WX VCTS VCTS VCTS
WDir 40 40 40
WSpd 6 6 6
WGst -- -- --

Raw TAF
KMEM 222332Z 2300/2406 10006KT P6SM VCTS SCT035CB BKN150
  FM230300 VRB03KT P6SM BKN250
  TEMPO 2309/2313 3SM BR
  FM231500 06006KT P6SM SCT040
  FM232000 04006KT P6SM VCTS BKN040CB BKN150


METAR Board
Radar Display
Forecast Discussion

FOR SITUATIONAL AWARENESS. NOT TO BE USED FOR FLIGHT PLANNING PURPOSES.